sensor_id;sensor_type;location;lat;lon;timestamp;temperature;humidity
4245;DHT22;2136;48.502;9.194;2023-12-07T00:00:58;4.40;91.20
4245;DHT22;2136;48.502;9.194;2023-12-07T00:03:24;4.40;91.20
4245;DHT22;2136;48.502;9.194;2023-12-07T00:05:51;4.40;91.40
4245;DHT22;2136;48.502;9.194;2023-12-07T00:08:18;4.40;91.50
4245;DHT22;2136;48.502;9.194;2023-12-07T00:10:46;4.50;91.60
4245;DHT22;2136;48.502;9.194;2023-12-07T00:13:13;4.40;91.50
4245;DHT22;2136;48.502;9.194;2023-12-07T00:15:40;4.40;91.60
4245;DHT22;2136;48.502;9.194;2023-12-07T00:18:07;4.40;91.90
4245;DHT22;2136;48.502;9.194;2023-12-07T00:20:34;4.60;92.00
4245;DHT22;2136;48.502;9.194;2023-12-07T00:23:00;4.40;91.80
4245;DHT22;2136;48.502;9.194;2023-12-07T00:25:27;4.40;91.80
4245;DHT22;2136;48.502;9.194;2023-12-07T00:27:55;4.50;91.90
4245;DHT22;2136;48.502;9.194;2023-12-07T00:30:23;4.40;91.90
4245;DHT22;2136;48.502;9.194;2023-12-07T00:32:49;4.40;91.80
4245;DHT22;2136;48.502;9.194;2023-12-07T00:35:16;4.50;91.90
4245;DHT22;2136;48.502;9.194;2023-12-07T00:37:47;4.40;91.90
4245;DHT22;2136;48.502;9.194;2023-12-07T00:40:14;4.40;91.60
4245;DHT22;2136;48.502;9.194;2023-12-07T00:42:41;4.40;91.70
4245;DHT22;2136;48.502;9.194;2023-12-07T00:45:11;4.40;91.60
4245;DHT22;2136;48.502;9.194;2023-12-07T00:47:39;4.40;91.20
4245;DHT22;2136;48.502;9.194;2023-12-07T00:50:07;4.40;91.10
4245;DHT22;2136;48.502;9.194;2023-12-07T00:52:33;4.40;91.40
4245;DHT22;2136;48.502;9.194;2023-12-07T00:55:00;4.40;91.70
4245;DHT22;2136;48.502;9.194;2023-12-07T00:57:27;4.50;91.90
4245;DHT22;2136;48.502;9.194;2023-12-07T00:59:54;4.30;91.90
4245;DHT22;2136;48.502;9.194;2023-12-07T01:02:22;4.50;91.80
4245;DHT22;2136;48.502;9.194;2023-12-07T01:04:49;4.50;91.90
4245;DHT22;2136;48.502;9.194;2023-12-07T01:07:16;4.50;92.10
4245;DHT22;2136;48.502;9.194;2023-12-07T01:09:43;4.50;92.10
4245;DHT22;2136;48.502;9.194;2023-12-07T01:12:10;4.50;92.10
4245;DHT22;2136;48.502;9.194;2023-12-07T01:14:36;4.50;91.90
4245;DHT22;2136;48.502;9.194;2023-12-07T01:17:03;4.50;91.50
4245;DHT22;2136;48.502;9.194;2023-12-07T01:19:32;4.40;91.40
4245;DHT22;2136;48.502;9.194;2023-12-07T01:21:59;4.60;91.10
4245;DHT22;2136;48.502;9.194;2023-12-07T01:24:26;4.40;91.10
4245;DHT22;2136;48.502;9.194;2023-12-07T01:26:54;4.40;91.30
4245;DHT22;2136;48.502;9.194;2023-12-07T01:29:21;4.40;91.30
4245;DHT22;2136;48.502;9.194;2023-12-07T01:31:48;4.40;90.80
4245;DHT22;2136;48.502;9.194;2023-12-07T01:34:16;4.40;90.80
4245;DHT22;2136;48.502;9.194;2023-12-07T01:36:44;4.30;90.90
4245;DHT22;2136;48.502;9.194;2023-12-07T01:39:10;4.30;90.90
4245;DHT22;2136;48.502;9.194;2023-12-07T01:41:38;4.40;90.90
4245;DHT22;2136;48.502;9.194;2023-12-07T01:44:05;4.20;90.70
4245;DHT22;2136;48.502;9.194;2023-12-07T01:46:32;4.10;90.80
4245;DHT22;2136;48.502;9.194;2023-12-07T01:48:59;4.00;90.90
4245;DHT22;2136;48.502;9.194;2023-12-07T01:51:27;4.00;91.10
4245;DHT22;2136;48.502;9.194;2023-12-07T01:53:55;3.90;91.10
4245;DHT22;2136;48.502;9.194;2023-12-07T01:56:23;3.90;91.20
4245;DHT22;2136;48.502;9.194;2023-12-07T01:58:51;3.90;91.30
4245;DHT22;2136;48.502;9.194;2023-12-07T02:01:18;3.90;91.40
4245;DHT22;2136;48.502;9.194;2023-12-07T02:03:45;3.80;91.60
4245;DHT22;2136;48.502;9.194;2023-12-07T02:06:12;3.90;91.70
4245;DHT22;2136;48.502;9.194;2023-12-07T02:08:39;3.80;91.60
4245;DHT22;2136;48.502;9.194;2023-12-07T02:11:08;3.80;91.60
4245;DHT22;2136;48.502;9.194;2023-12-07T02:13:36;3.80;91.50
4245;DHT22;2136;48.502;9.194;2023-12-07T02:16:06;3.80;90.90
4245;DHT22;2136;48.502;9.194;2023-12-07T02:18:39;3.80;91.00
4245;DHT22;2136;48.502;9.194;2023-12-07T02:21:13;3.80;91.10
4245;DHT22;2136;48.502;9.194;2023-12-07T02:23:42;3.70;91.00
4245;DHT22;2136;48.502;9.194;2023-12-07T02:26:13;3.80;91.50
4245;DHT22;2136;48.502;9.194;2023-12-07T02:28:46;3.70;91.60
4245;DHT22;2136;48.502;9.194;2023-12-07T02:31:13;3.70;92.00
4245;DHT22;2136;48.502;9.194;2023-12-07T02:33:40;3.70;92.20
4245;DHT22;2136;48.502;9.194;2023-12-07T02:36:07;3.80;92.50
4245;DHT22;2136;48.502;9.194;2023-12-07T02:38:35;3.80;92.60
4245;DHT22;2136;48.502;9.194;2023-12-07T02:41:03;3.80;92.40
4245;DHT22;2136;48.502;9.194;2023-12-07T02:43:30;3.90;92.40
4245;DHT22;2136;48.502;9.194;2023-12-07T02:45:59;3.90;92.40
4245;DHT22;2136;48.502;9.194;2023-12-07T02:48:26;3.90;92.20
4245;DHT22;2136;48.502;9.194;2023-12-07T02:50:54;3.90;91.90
4245;DHT22;2136;48.502;9.194;2023-12-07T02:53:21;3.90;91.90
4245;DHT22;2136;48.502;9.194;2023-12-07T02:55:48;3.90;91.90
4245;DHT22;2136;48.502;9.194;2023-12-07T02:58:15;3.90;91.80
4245;DHT22;2136;48.502;9.194;2023-12-07T03:00:41;3.90;91.60
4245;DHT22;2136;48.502;9.194;2023-12-07T03:03:10;3.90;91.50
4245;DHT22;2136;48.502;9.194;2023-12-07T03:05:36;3.90;91.60
4245;DHT22;2136;48.502;9.194;2023-12-07T03:08:03;3.80;91.70
4245;DHT22;2136;48.502;9.194;2023-12-07T03:10:30;3.80;91.60
4245;DHT22;2136;48.502;9.194;2023-12-07T03:12:57;3.80;91.50
4245;DHT22;2136;48.502;9.194;2023-12-07T03:15:24;3.70;91.50
4245;DHT22;2136;48.502;9.194;2023-12-07T03:17:51;3.70;91.50
4245;DHT22;2136;48.502;9.194;2023-12-07T03:20:19;3.60;91.60
4245;DHT22;2136;48.502;9.194;2023-12-07T03:22:46;3.60;91.70
4245;DHT22;2136;48.502;9.194;2023-12-07T03:25:13;3.50;91.40
4245;DHT22;2136;48.502;9.194;2023-12-07T03:27:40;3.50;91.40
4245;DHT22;2136;48.502;9.194;2023-12-07T03:30:08;3.40;91.60
4245;DHT22;2136;48.502;9.194;2023-12-07T03:32:35;3.30;91.60
4245;DHT22;2136;48.502;9.194;2023-12-07T03:35:01;3.20;91.40
4245;DHT22;2136;48.502;9.194;2023-12-07T03:37:30;3.20;91.40
4245;DHT22;2136;48.502;9.194;2023-12-07T03:39:57;3.10;91.80
4245;DHT22;2136;48.502;9.194;2023-12-07T03:42:23;3.10;91.40
4245;DHT22;2136;48.502;9.194;2023-12-07T03:44:50;3.10;91.50
4245;DHT22;2136;48.502;9.194;2023-12-07T03:47:17;3.00;91.50
4245;DHT22;2136;48.502;9.194;2023-12-07T03:49:44;3.00;91.40
4245;DHT22;2136;48.502;9.194;2023-12-07T03:52:11;2.90;91.30
4245;DHT22;2136;48.502;9.194;2023-12-07T03:54:39;2.90;91.30
4245;DHT22;2136;48.502;9.194;2023-12-07T03:57:06;2.80;91.50
4245;DHT22;2136;48.502;9.194;2023-12-07T03:59:35;2.70;91.80
4245;DHT22;2136;48.502;9.194;2023-12-07T04:02:02;2.70;92.20
4245;DHT22;2136;48.502;9.194;2023-12-07T04:04:29;2.60;92.50
4245;DHT22;2136;48.502;9.194;2023-12-07T04:06:56;2.60;92.70
4245;DHT22;2136;48.502;9.194;2023-12-07T04:09:23;2.50;92.70
4245;DHT22;2136;48.502;9.194;2023-12-07T04:11:51;2.60;92.90
4245;DHT22;2136;48.502;9.194;2023-12-07T04:14:17;2.50;93.20
4245;DHT22;2136;48.502;9.194;2023-12-07T04:16:44;2.50;93.30
4245;DHT22;2136;48.502;9.194;2023-12-07T04:19:11;2.40;93.40
4245;DHT22;2136;48.502;9.194;2023-12-07T04:21:38;2.40;93.50
4245;DHT22;2136;48.502;9.194;2023-12-07T04:24:05;2.30;93.60
4245;DHT22;2136;48.502;9.194;2023-12-07T04:26:32;2.40;93.90
4245;DHT22;2136;48.502;9.194;2023-12-07T04:29:00;2.30;94.10
4245;DHT22;2136;48.502;9.194;2023-12-07T04:31:27;2.30;93.90
4245;DHT22;2136;48.502;9.194;2023-12-07T04:33:53;2.30;94.00
4245;DHT22;2136;48.502;9.194;2023-12-07T04:36:20;2.30;94.20
4245;DHT22;2136;48.502;9.194;2023-12-07T04:38:47;2.20;94.70
4245;DHT22;2136;48.502;9.194;2023-12-07T04:41:14;2.20;94.50
4245;DHT22;2136;48.502;9.194;2023-12-07T04:43:41;2.20;94.60
4245;DHT22;2136;48.502;9.194;2023-12-07T04:46:09;2.20;94.70
4245;DHT22;2136;48.502;9.194;2023-12-07T04:48:36;2.20;94.60
4245;DHT22;2136;48.502;9.194;2023-12-07T04:51:03;2.10;94.70
4245;DHT22;2136;48.502;9.194;2023-12-07T04:53:29;2.10;94.80
4245;DHT22;2136;48.502;9.194;2023-12-07T04:55:56;2.10;94.90
4245;DHT22;2136;48.502;9.194;2023-12-07T04:58:23;2.10;95.00
4245;DHT22;2136;48.502;9.194;2023-12-07T05:00:50;2.10;94.80
4245;DHT22;2136;48.502;9.194;2023-12-07T05:03:18;2.10;94.50
4245;DHT22;2136;48.502;9.194;2023-12-07T05:05:45;2.10;94.30
4245;DHT22;2136;48.502;9.194;2023-12-07T05:08:11;2.00;94.00
4245;DHT22;2136;48.502;9.194;2023-12-07T05:10:38;2.00;93.80
4245;DHT22;2136;48.502;9.194;2023-12-07T05:13:05;2.00;93.70
4245;DHT22;2136;48.502;9.194;2023-12-07T05:15:32;2.00;93.80
4245;DHT22;2136;48.502;9.194;2023-12-07T05:17:59;2.00;93.60
4245;DHT22;2136;48.502;9.194;2023-12-07T05:20:27;2.00;93.50
4245;DHT22;2136;48.502;9.194;2023-12-07T05:22:54;1.90;93.00
4245;DHT22;2136;48.502;9.194;2023-12-07T05:25:21;1.90;93.00
4245;DHT22;2136;48.502;9.194;2023-12-07T05:27:48;1.90;92.60
4245;DHT22;2136;48.502;9.194;2023-12-07T05:30:15;1.80;92.60
4245;DHT22;2136;48.502;9.194;2023-12-07T05:32:42;1.80;92.70
4245;DHT22;2136;48.502;9.194;2023-12-07T05:35:09;1.80;92.80
4245;DHT22;2136;48.502;9.194;2023-12-07T05:37:37;1.70;92.90
4245;DHT22;2136;48.502;9.194;2023-12-07T05:40:05;1.70;92.60
4245;DHT22;2136;48.502;9.194;2023-12-07T05:42:32;1.70;92.70
4245;DHT22;2136;48.502;9.194;2023-12-07T05:44:59;1.70;92.80
4245;DHT22;2136;48.502;9.194;2023-12-07T05:47:26;1.70;92.80
4245;DHT22;2136;48.502;9.194;2023-12-07T05:49:53;1.60;92.90
4245;DHT22;2136;48.502;9.194;2023-12-07T05:52:20;1.60;93.00
4245;DHT22;2136;48.502;9.194;2023-12-07T05:54:48;1.60;93.00
4245;DHT22;2136;48.502;9.194;2023-12-07T05:57:14;1.60;93.50
4245;DHT22;2136;48.502;9.194;2023-12-07T05:59:41;1.50;93.40
4245;DHT22;2136;48.502;9.194;2023-12-07T06:02:08;1.50;93.50
4245;DHT22;2136;48.502;9.194;2023-12-07T06:04:35;1.50;93.80
4245;DHT22;2136;48.502;9.194;2023-12-07T06:07:02;1.50;94.00
4245;DHT22;2136;48.502;9.194;2023-12-07T06:09:29;1.40;94.20
4245;DHT22;2136;48.502;9.194;2023-12-07T06:11:57;1.40;94.40
4245;DHT22;2136;48.502;9.194;2023-12-07T06:14:24;1.40;94.40
4245;DHT22;2136;48.502;9.194;2023-12-07T06:16:51;1.40;94.50
4245;DHT22;2136;48.502;9.194;2023-12-07T06:19:18;1.40;94.60
4245;DHT22;2136;48.502;9.194;2023-12-07T06:21:44;1.40;94.70
4245;DHT22;2136;48.502;9.194;2023-12-07T06:24:11;1.40;94.70
4245;DHT22;2136;48.502;9.194;2023-12-07T06:26:39;1.40;94.80
4245;DHT22;2136;48.502;9.194;2023-12-07T06:29:07;1.30;94.80
4245;DHT22;2136;48.502;9.194;2023-12-07T06:31:34;1.30;94.90
4245;DHT22;2136;48.502;9.194;2023-12-07T06:34:01;1.30;94.90
4245;DHT22;2136;48.502;9.194;2023-12-07T06:36:28;1.30;94.80
4245;DHT22;2136;48.502;9.194;2023-12-07T06:38:55;1.30;94.60
4245;DHT22;2136;48.502;9.194;2023-12-07T06:41:22;1.30;94.50
4245;DHT22;2136;48.502;9.194;2023-12-07T06:43:49;1.30;94.70
4245;DHT22;2136;48.502;9.194;2023-12-07T06:46:17;1.30;94.90
4245;DHT22;2136;48.502;9.194;2023-12-07T06:48:44;1.30;94.80
4245;DHT22;2136;48.502;9.194;2023-12-07T06:51:11;1.30;94.50
4245;DHT22;2136;48.502;9.194;2023-12-07T06:53:39;1.30;94.00
4245;DHT22;2136;48.502;9.194;2023-12-07T06:56:07;1.30;93.40
4245;DHT22;2136;48.502;9.194;2023-12-07T06:58:34;1.30;93.00
4245;DHT22;2136;48.502;9.194;2023-12-07T07:01:01;1.30;92.80
4245;DHT22;2136;48.502;9.194;2023-12-07T07:03:29;1.30;92.70
4245;DHT22;2136;48.502;9.194;2023-12-07T07:05:56;1.30;92.40
4245;DHT22;2136;48.502;9.194;2023-12-07T07:08:24;1.30;91.70
4245;DHT22;2136;48.502;9.194;2023-12-07T07:10:51;1.30;91.40
4245;DHT22;2136;48.502;9.194;2023-12-07T07:13:18;1.20;91.00
4245;DHT22;2136;48.502;9.194;2023-12-07T07:15:45;1.20;90.70
4245;DHT22;2136;48.502;9.194;2023-12-07T07:18:13;1.20;90.70
4245;DHT22;2136;48.502;9.194;2023-12-07T07:20:41;1.10;90.60
4245;DHT22;2136;48.502;9.194;2023-12-07T07:23:08;1.10;90.50
4245;DHT22;2136;48.502;9.194;2023-12-07T07:25:36;1.10;90.30
4245;DHT22;2136;48.502;9.194;2023-12-07T07:28:04;1.00;90.10
4245;DHT22;2136;48.502;9.194;2023-12-07T07:30:31;0.90;90.10
4245;DHT22;2136;48.502;9.194;2023-12-07T07:32:58;1.00;90.20
4245;DHT22;2136;48.502;9.194;2023-12-07T07:35:25;1.00;90.40
4245;DHT22;2136;48.502;9.194;2023-12-07T07:37:54;0.90;90.60
4245;DHT22;2136;48.502;9.194;2023-12-07T07:40:21;0.90;90.80
4245;DHT22;2136;48.502;9.194;2023-12-07T07:42:47;1.00;90.90
4245;DHT22;2136;48.502;9.194;2023-12-07T07:45:14;0.90;90.90
4245;DHT22;2136;48.502;9.194;2023-12-07T07:47:41;0.90;90.70
4245;DHT22;2136;48.502;9.194;2023-12-07T07:50:09;0.90;90.90
4245;DHT22;2136;48.502;9.194;2023-12-07T07:52:36;1.10;91.40
4245;DHT22;2136;48.502;9.194;2023-12-07T07:55:05;1.00;91.40
4245;DHT22;2136;48.502;9.194;2023-12-07T07:57:32;1.00;91.60
4245;DHT22;2136;48.502;9.194;2023-12-07T07:59:59;1.00;91.80
4245;DHT22;2136;48.502;9.194;2023-12-07T08:02:26;1.10;92.00
4245;DHT22;2136;48.502;9.194;2023-12-07T08:04:53;1.10;91.90
4245;DHT22;2136;48.502;9.194;2023-12-07T08:07:20;1.10;91.90
4245;DHT22;2136;48.502;9.194;2023-12-07T08:09:47;1.10;92.00
4245;DHT22;2136;48.502;9.194;2023-12-07T08:12:15;1.30;92.10
4245;DHT22;2136;48.502;9.194;2023-12-07T08:14:42;1.10;92.00
4245;DHT22;2136;48.502;9.194;2023-12-07T08:17:10;1.10;92.00
4245;DHT22;2136;48.502;9.194;2023-12-07T08:19:37;1.10;92.10
4245;DHT22;2136;48.502;9.194;2023-12-07T08:22:04;1.20;92.00
4245;DHT22;2136;48.502;9.194;2023-12-07T08:24:31;1.20;92.30
4245;DHT22;2136;48.502;9.194;2023-12-07T08:26:58;1.20;92.50
4245;DHT22;2136;48.502;9.194;2023-12-07T08:29:26;1.30;92.60
4245;DHT22;2136;48.502;9.194;2023-12-07T08:31:53;1.30;92.60
4245;DHT22;2136;48.502;9.194;2023-12-07T08:34:19;1.30;92.70
4245;DHT22;2136;48.502;9.194;2023-12-07T08:36:46;1.40;92.50
4245;DHT22;2136;48.502;9.194;2023-12-07T08:39:13;1.50;92.50
4245;DHT22;2136;48.502;9.194;2023-12-07T08:41:40;1.50;92.40
4245;DHT22;2136;48.502;9.194;2023-12-07T08:44:07;1.50;92.20
4245;DHT22;2136;48.502;9.194;2023-12-07T08:46:35;1.60;92.00
4245;DHT22;2136;48.502;9.194;2023-12-07T08:49:02;1.60;91.70
4245;DHT22;2136;48.502;9.194;2023-12-07T08:51:29;1.70;91.20
4245;DHT22;2136;48.502;9.194;2023-12-07T08:53:56;1.90;91.20
4245;DHT22;2136;48.502;9.194;2023-12-07T08:56:23;1.70;90.60
4245;DHT22;2136;48.502;9.194;2023-12-07T08:58:51;1.80;90.30
4245;DHT22;2136;48.502;9.194;2023-12-07T09:01:18;1.80;90.30
4245;DHT22;2136;48.502;9.194;2023-12-07T09:03:46;2.00;90.00
4245;DHT22;2136;48.502;9.194;2023-12-07T09:06:13;1.90;89.70
4245;DHT22;2136;48.502;9.194;2023-12-07T09:08:39;1.90;89.90
4245;DHT22;2136;48.502;9.194;2023-12-07T09:11:06;2.00;90.00
4245;DHT22;2136;48.502;9.194;2023-12-07T09:13:33;2.00;90.20
4245;DHT22;2136;48.502;9.194;2023-12-07T09:16:00;2.10;90.30
4245;DHT22;2136;48.502;9.194;2023-12-07T09:18:26;2.10;90.00
4245;DHT22;2136;48.502;9.194;2023-12-07T09:20:55;2.20;89.70
4245;DHT22;2136;48.502;9.194;2023-12-07T09:23:22;2.20;89.50
4245;DHT22;2136;48.502;9.194;2023-12-07T09:25:49;2.30;89.00
4245;DHT22;2136;48.502;9.194;2023-12-07T09:28:16;2.30;89.30
4245;DHT22;2136;48.502;9.194;2023-12-07T09:30:43;2.40;89.10
4245;DHT22;2136;48.502;9.194;2023-12-07T09:33:10;2.40;89.10
4245;DHT22;2136;48.502;9.194;2023-12-07T09:35:38;2.50;88.80
4245;DHT22;2136;48.502;9.194;2023-12-07T09:38:06;2.50;89.00
4245;DHT22;2136;48.502;9.194;2023-12-07T09:40:33;2.60;88.80
4245;DHT22;2136;48.502;9.194;2023-12-07T09:43:00;2.70;88.50
4245;DHT22;2136;48.502;9.194;2023-12-07T09:45:28;2.80;88.20
4245;DHT22;2136;48.502;9.194;2023-12-07T09:47:55;2.90;88.60
4245;DHT22;2136;48.502;9.194;2023-12-07T09:50:23;3.00;88.20
4245;DHT22;2136;48.502;9.194;2023-12-07T09:52:51;3.20;88.00
4245;DHT22;2136;48.502;9.194;2023-12-07T09:55:19;3.10;87.60
4245;DHT22;2136;48.502;9.194;2023-12-07T09:57:48;3.10;87.20
4245;DHT22;2136;48.502;9.194;2023-12-07T10:00:15;3.20;87.20
4245;DHT22;2136;48.502;9.194;2023-12-07T10:02:46;3.30;86.60
4245;DHT22;2136;48.502;9.194;2023-12-07T10:05:14;3.30;85.90
4245;DHT22;2136;48.502;9.194;2023-12-07T10:07:43;3.30;85.80
4245;DHT22;2136;48.502;9.194;2023-12-07T10:10:12;3.60;85.70
4245;DHT22;2136;48.502;9.194;2023-12-07T10:12:46;3.50;85.30
4245;DHT22;2136;48.502;9.194;2023-12-07T10:15:15;3.80;85.50
4245;DHT22;2136;48.502;9.194;2023-12-07T10:17:47;3.70;84.80
4245;DHT22;2136;48.502;9.194;2023-12-07T10:20:15;3.90;83.60
4245;DHT22;2136;48.502;9.194;2023-12-07T10:22:42;4.20;83.10
4245;DHT22;2136;48.502;9.194;2023-12-07T10:25:10;4.70;83.70
4245;DHT22;2136;48.502;9.194;2023-12-07T10:27:39;5.80;83.50
4245;DHT22;2136;48.502;9.194;2023-12-07T10:30:11;6.90;79.00
4245;DHT22;2136;48.502;9.194;2023-12-07T10:32:38;7.90;75.80
4245;DHT22;2136;48.502;9.194;2023-12-07T10:35:08;8.80;73.50
4245;DHT22;2136;48.502;9.194;2023-12-07T10:37:35;9.60;69.80
4245;DHT22;2136;48.502;9.194;2023-12-07T10:40:04;10.70;67.10
4245;DHT22;2136;48.502;9.194;2023-12-07T10:42:34;11.90;65.10
4245;DHT22;2136;48.502;9.194;2023-12-07T10:45:04;12.80;61.60
4245;DHT22;2136;48.502;9.194;2023-12-07T10:47:36;13.50;59.40
4245;DHT22;2136;48.502;9.194;2023-12-07T10:50:06;14.00;57.30
4245;DHT22;2136;48.502;9.194;2023-12-07T10:52:37;14.20;54.60
4245;DHT22;2136;48.502;9.194;2023-12-07T10:55:07;14.60;53.90
4245;DHT22;2136;48.502;9.194;2023-12-07T10:57:37;15.30;52.50
4245;DHT22;2136;48.502;9.194;2023-12-07T11:00:07;16.10;51.90
4245;DHT22;2136;48.502;9.194;2023-12-07T11:02:36;16.90;51.00
4245;DHT22;2136;48.502;9.194;2023-12-07T11:05:06;17.60;49.80
4245;DHT22;2136;48.502;9.194;2023-12-07T11:07:42;18.70;48.80
4245;DHT22;2136;48.502;9.194;2023-12-07T11:10:21;20.10;47.20
4245;DHT22;2136;48.502;9.194;2023-12-07T11:12:56;21.70;46.90
4245;DHT22;2136;48.502;9.194;2023-12-07T11:15:26;22.90;46.80
4245;DHT22;2136;48.502;9.194;2023-12-07T11:17:56;23.30;43.90
4245;DHT22;2136;48.502;9.194;2023-12-07T11:20:32;23.40;43.50
4245;DHT22;2136;48.502;9.194;2023-12-07T11:22:59;23.40;42.30
4245;DHT22;2136;48.502;9.194;2023-12-07T11:25:26;23.10;41.50
4245;DHT22;2136;48.502;9.194;2023-12-07T11:28:00;22.80;40.00
4245;DHT22;2136;48.502;9.194;2023-12-07T11:30:27;22.30;39.00
4245;DHT22;2136;48.502;9.194;2023-12-07T11:32:56;21.40;38.10
4245;DHT22;2136;48.502;9.194;2023-12-07T11:35:23;20.40;37.40
4245;DHT22;2136;48.502;9.194;2023-12-07T11:38:04;19.20;36.50
4245;DHT22;2136;48.502;9.194;2023-12-07T11:40:34;18.00;36.50
4245;DHT22;2136;48.502;9.194;2023-12-07T11:43:01;17.00;36.30
4245;DHT22;2136;48.502;9.194;2023-12-07T11:45:40;16.10;36.30
4245;DHT22;2136;48.502;9.194;2023-12-07T11:48:10;15.00;36.70
4245;DHT22;2136;48.502;9.194;2023-12-07T11:50:56;14.10;37.10
4245;DHT22;2136;48.502;9.194;2023-12-07T11:53:24;13.30;36.50
4245;DHT22;2136;48.502;9.194;2023-12-07T11:55:51;12.60;37.20
4245;DHT22;2136;48.502;9.194;2023-12-07T11:58:18;11.90;37.50
4245;DHT22;2136;48.502;9.194;2023-12-07T12:00:46;11.40;38.20
4245;DHT22;2136;48.502;9.194;2023-12-07T12:03:14;10.90;39.10
4245;DHT22;2136;48.502;9.194;2023-12-07T12:05:41;10.50;39.10
4245;DHT22;2136;48.502;9.194;2023-12-07T12:08:09;10.10;39.60
4245;DHT22;2136;48.502;9.194;2023-12-07T12:10:37;9.70;41.10
4245;DHT22;2136;48.502;9.194;2023-12-07T12:13:04;9.40;41.60
4245;DHT22;2136;48.502;9.194;2023-12-07T12:15:31;9.10;42.20
4245;DHT22;2136;48.502;9.194;2023-12-07T12:17:59;8.90;42.20
4245;DHT22;2136;48.502;9.194;2023-12-07T12:20:27;8.70;42.40
4245;DHT22;2136;48.502;9.194;2023-12-07T12:22:55;8.60;42.70
4245;DHT22;2136;48.502;9.194;2023-12-07T12:25:23;8.50;43.30
4245;DHT22;2136;48.502;9.194;2023-12-07T12:27:51;8.40;43.20
4245;DHT22;2136;48.502;9.194;2023-12-07T12:30:19;8.40;43.40
4245;DHT22;2136;48.502;9.194;2023-12-07T12:32:48;8.40;43.80
4245;DHT22;2136;48.502;9.194;2023-12-07T12:35:16;8.40;44.40
4245;DHT22;2136;48.502;9.194;2023-12-07T12:37:45;8.40;45.30
4245;DHT22;2136;48.502;9.194;2023-12-07T12:40:14;8.30;44.60
4245;DHT22;2136;48.502;9.194;2023-12-07T12:42:44;8.30;44.60
4245;DHT22;2136;48.502;9.194;2023-12-07T12:45:11;8.20;44.90
4245;DHT22;2136;48.502;9.194;2023-12-07T12:47:38;8.10;44.90
4245;DHT22;2136;48.502;9.194;2023-12-07T12:50:06;8.00;45.60
4245;DHT22;2136;48.502;9.194;2023-12-07T12:52:33;7.90;45.10
4245;DHT22;2136;48.502;9.194;2023-12-07T12:55:06;7.80;44.90
4245;DHT22;2136;48.502;9.194;2023-12-07T12:57:33;7.70;45.40
4245;DHT22;2136;48.502;9.194;2023-12-07T13:00:02;7.70;46.10
4245;DHT22;2136;48.502;9.194;2023-12-07T13:02:29;7.60;45.50
4245;DHT22;2136;48.502;9.194;2023-12-07T13:04:56;7.60;45.70
4245;DHT22;2136;48.502;9.194;2023-12-07T13:07:23;7.60;45.50
4245;DHT22;2136;48.502;9.194;2023-12-07T13:09:50;7.60;45.40
4245;DHT22;2136;48.502;9.194;2023-12-07T13:12:18;7.60;45.90
4245;DHT22;2136;48.502;9.194;2023-12-07T13:14:45;7.50;45.90
4245;DHT22;2136;48.502;9.194;2023-12-07T13:17:12;7.40;45.20
4245;DHT22;2136;48.502;9.194;2023-12-07T13:19:39;7.30;45.80
4245;DHT22;2136;48.502;9.194;2023-12-07T13:22:06;7.30;45.90
4245;DHT22;2136;48.502;9.194;2023-12-07T13:24:33;7.30;45.50
4245;DHT22;2136;48.502;9.194;2023-12-07T13:27:00;7.30;45.50
4245;DHT22;2136;48.502;9.194;2023-12-07T13:29:28;7.40;45.70
4245;DHT22;2136;48.502;9.194;2023-12-07T13:31:55;7.50;45.90
4245;DHT22;2136;48.502;9.194;2023-12-07T13:34:23;7.50;46.50
4245;DHT22;2136;48.502;9.194;2023-12-07T13:36:51;7.60;46.40
4245;DHT22;2136;48.502;9.194;2023-12-07T13:39:18;7.70;45.80
4245;DHT22;2136;48.502;9.194;2023-12-07T13:41:46;7.70;45.30
4245;DHT22;2136;48.502;9.194;2023-12-07T13:44:15;7.80;45.20
4245;DHT22;2136;48.502;9.194;2023-12-07T13:46:45;7.80;45.10
4245;DHT22;2136;48.502;9.194;2023-12-07T13:49:11;7.80;45.10
4245;DHT22;2136;48.502;9.194;2023-12-07T13:51:39;7.80;44.70
4245;DHT22;2136;48.502;9.194;2023-12-07T13:54:06;7.70;44.20
4245;DHT22;2136;48.502;9.194;2023-12-07T13:56:33;7.70;44.00
4245;DHT22;2136;48.502;9.194;2023-12-07T13:59:00;7.70;44.10
4245;DHT22;2136;48.502;9.194;2023-12-07T14:01:27;7.60;43.70
4245;DHT22;2136;48.502;9.194;2023-12-07T14:03:58;7.80;44.00
4245;DHT22;2136;48.502;9.194;2023-12-07T14:06:27;7.50;43.90
4245;DHT22;2136;48.502;9.194;2023-12-07T14:08:54;7.50;44.30
4245;DHT22;2136;48.502;9.194;2023-12-07T14:11:21;7.40;44.00
4245;DHT22;2136;48.502;9.194;2023-12-07T14:13:47;7.40;44.50
4245;DHT22;2136;48.502;9.194;2023-12-07T14:16:19;7.30;44.60
4245;DHT22;2136;48.502;9.194;2023-12-07T14:18:45;7.20;43.90
4245;DHT22;2136;48.502;9.194;2023-12-07T14:21:19;7.20;44.70
4245;DHT22;2136;48.502;9.194;2023-12-07T14:23:46;7.10;44.50
4245;DHT22;2136;48.502;9.194;2023-12-07T14:26:13;7.00;44.40
4245;DHT22;2136;48.502;9.194;2023-12-07T14:28:39;6.90;44.50
4245;DHT22;2136;48.502;9.194;2023-12-07T14:31:07;6.90;44.40
4245;DHT22;2136;48.502;9.194;2023-12-07T14:33:39;6.80;44.60
4245;DHT22;2136;48.502;9.194;2023-12-07T14:36:09;6.70;44.60
4245;DHT22;2136;48.502;9.194;2023-12-07T14:38:38;6.60;44.80
4245;DHT22;2136;48.502;9.194;2023-12-07T14:41:06;6.50;44.60
4245;DHT22;2136;48.502;9.194;2023-12-07T14:43:33;6.50;45.20
4245;DHT22;2136;48.502;9.194;2023-12-07T14:46:00;6.40;45.30
4245;DHT22;2136;48.502;9.194;2023-12-07T14:48:27;6.30;45.60
4245;DHT22;2136;48.502;9.194;2023-12-07T14:50:55;6.30;46.20
4245;DHT22;2136;48.502;9.194;2023-12-07T14:53:21;6.20;45.90
4245;DHT22;2136;48.502;9.194;2023-12-07T14:55:51;6.20;46.20
4245;DHT22;2136;48.502;9.194;2023-12-07T14:58:19;6.10;46.50
4245;DHT22;2136;48.502;9.194;2023-12-07T15:00:46;6.00;47.20
4245;DHT22;2136;48.502;9.194;2023-12-07T15:03:12;6.00;47.20
4245;DHT22;2136;48.502;9.194;2023-12-07T15:05:39;5.80;47.10
4245;DHT22;2136;48.502;9.194;2023-12-07T15:08:07;5.80;47.50
4245;DHT22;2136;48.502;9.194;2023-12-07T15:10:34;5.80;47.60
4245;DHT22;2136;48.502;9.194;2023-12-07T15:13:02;5.90;48.10
4245;DHT22;2136;48.502;9.194;2023-12-07T15:15:29;5.70;48.40
4245;DHT22;2136;48.502;9.194;2023-12-07T15:17:56;5.70;48.80
4245;DHT22;2136;48.502;9.194;2023-12-07T15:20:23;5.60;48.90
4245;DHT22;2136;48.502;9.194;2023-12-07T15:22:50;5.60;49.70
4245;DHT22;2136;48.502;9.194;2023-12-07T15:25:17;5.50;50.00
4245;DHT22;2136;48.502;9.194;2023-12-07T15:27:44;5.50;50.00
4245;DHT22;2136;48.502;9.194;2023-12-07T15:30:14;5.40;50.60
4245;DHT22;2136;48.502;9.194;2023-12-07T15:32:41;5.40;50.30
4245;DHT22;2136;48.502;9.194;2023-12-07T15:35:09;5.30;50.30
4245;DHT22;2136;48.502;9.194;2023-12-07T15:37:35;5.30;50.30
4245;DHT22;2136;48.502;9.194;2023-12-07T15:40:02;5.30;50.50
4245;DHT22;2136;48.502;9.194;2023-12-07T15:42:29;5.30;50.80
4245;DHT22;2136;48.502;9.194;2023-12-07T15:44:57;5.20;50.80
4245;DHT22;2136;48.502;9.194;2023-12-07T15:47:25;5.20;50.50
4245;DHT22;2136;48.502;9.194;2023-12-07T15:49:52;5.10;50.80
4245;DHT22;2136;48.502;9.194;2023-12-07T15:52:19;5.10;51.80
4245;DHT22;2136;48.502;9.194;2023-12-07T15:54:45;5.00;52.50
4245;DHT22;2136;48.502;9.194;2023-12-07T15:57:12;4.90;52.90
4245;DHT22;2136;48.502;9.194;2023-12-07T15:59:39;4.90;53.40
4245;DHT22;2136;48.502;9.194;2023-12-07T16:02:07;4.80;53.90
4245;DHT22;2136;48.502;9.194;2023-12-07T16:04:50;4.80;54.20
4245;DHT22;2136;48.502;9.194;2023-12-07T16:07:18;4.70;53.90
4245;DHT22;2136;48.502;9.194;2023-12-07T16:09:45;4.60;54.20
4245;DHT22;2136;48.502;9.194;2023-12-07T16:12:12;4.50;54.10
4245;DHT22;2136;48.502;9.194;2023-12-07T16:14:39;4.40;53.70
4245;DHT22;2136;48.502;9.194;2023-12-07T16:17:07;4.40;53.80
4245;DHT22;2136;48.502;9.194;2023-12-07T16:19:34;4.30;54.00